EDXW/GWT METAR and TAF weather

Enter ICAO airport designator
Station Type Date Time Source
EDXW METAR 2018/04/26 14:50 UTC NOAA

EDXW 261450Z 25019KT 9999 FEW009 09/07 Q1010


Station Type Date Time Source
EDXW Decoded METAR 2018/04/26 14:50 UTC NOAA

Westerland / Sylt, Germany (EDXW) 54-55N 008-21E 20M
Apr 26, 2018 - 10:50 AM EDT / 2018.04.26 1450 UTC
Wind: from the WSW (250 degrees) at 22 MPH (19 KT):0
Visibility: greater than 7 mile(s):0
Sky conditions: mostly clear
Temperature: 48 F (9 C)
Dew Point: 44 F (7 C)
Relative Humidity: 87%
Pressure (altimeter): 29.83 in. Hg (1010 hPa)
ob: EDXW 261450Z 25019KT 9999 FEW009 09/07 Q1010
cycle: 15

Station Type Date Time Source
EDXW TAF 2009/07/07 14:00 UTC NOAA

TAF EDXW 071400Z 0715/0719 22015G25KT 9999 SCT020


Example: see airport list